Time;durP1;ratioP1;P1;durP2;ratioP2;P2;SDS_P1;SDS_P2;PMS_P1;PMS_P2;Temp;Humidity;BMP_temperature;BMP_pressure;BME280_temperature;BME280_humidity;BME280_pressure;Samples;Min_cycle;Max_cycle;Signal;HPM_P1;HPM_P2
2023/01/06 00:01:11;;;;;;;20.88;7.03;;;;;;;;;;5070338;28;20075;-67
2023/01/06 00:03:37;;;;;;;23.63;8.65;;;;;;;;;;5074463;28;20044;-67
2023/01/06 00:06:04;;;;;;;27.50;9.55;;;;;;;;;;5074137;28;20155;-67
2023/01/06 00:08:30;;;;;;;25.35;8.05;;;;;;;;;;5088342;28;20931;-67
2023/01/06 00:10:57;;;;;;;22.92;7.22;;;;;;;;;;5074000;28;20036;-67
2023/01/06 00:13:23;;;;;;;21.58;8.82;;;;;;;;;;5089624;28;20398;-67
2023/01/06 00:15:49;;;;;;;22.13;7.75;;;;;;;;;;5084604;28;20539;-67
2023/01/06 00:18:15;;;;;;;25.60;7.03;;;;;;;;;;5076831;28;20062;-67
2023/01/06 00:20:41;;;;;;;16.85;9.75;;;;;;;;;;5064599;28;20045;-67
2023/01/06 00:23:07;;;;;;;23.10;7.55;;;;;;;;;;5093037;28;20477;-67
2023/01/06 00:25:33;;;;;;;20.42;7.63;;;;;;;;;;5086480;28;20171;-67
2023/01/06 00:27:59;;;;;;;20.02;6.35;;;;;;;;;;5084816;28;20044;-67
2023/01/06 00:30:27;;;;;;;19.20;6.28;;;;;;;;;;5068402;28;20097;-67
2023/01/06 00:32:53;;;;;;;22.33;7.25;;;;;;;;;;5086784;28;20071;-67
2023/01/06 00:35:19;;;;;;;17.08;6.80;;;;;;;;;;5075457;28;20040;-67
2023/01/06 00:37:45;;;;;;;19.42;6.13;;;;;;;;;;5087276;28;20093;-67
2023/01/06 00:40:11;;;;;;;20.98;6.88;;;;;;;;;;5069758;28;20134;-67
2023/01/06 00:42:38;;;;;;;27.65;6.10;;;;;;;;;;5069546;28;20196;-67
2023/01/06 00:45:04;;;;;;;16.23;6.47;;;;;;;;;;5071959;28;20501;-67
2023/01/06 00:47:30;;;;;;;17.20;5.43;;;;;;;;;;5069363;28;20477;-67
2023/01/06 00:49:56;;;;;;;22.20;6.00;;;;;;;;;;5088115;28;20040;-67
2023/01/06 00:52:22;;;;;;;20.85;7.05;;;;;;;;;;5099414;28;20043;-68
2023/01/06 00:54:48;;;;;;;22.88;5.93;;;;;;;;;;5085349;28;20044;-68
2023/01/06 00:57:14;;;;;;;18.92;5.72;;;;;;;;;;5089544;28;20550;-67
2023/01/06 00:59:40;;;;;;;15.18;6.93;;;;;;;;;;5084550;28;20124;-67
2023/01/06 01:02:07;;;;;;;16.77;5.82;;;;;;;;;;5058027;28;20066;-67
2023/01/06 01:04:33;;;;;;;14.82;4.60;;;;;;;;;;5089235;28;20036;-67
2023/01/06 01:06:59;;;;;;;14.13;5.25;;;;;;;;;;5092746;28;20060;-67
2023/01/06 01:09:29;;;;;;;16.02;5.80;;;;;;;;;;5066976;28;20044;-67
2023/01/06 01:12:08;;;;;;;22.77;5.13;;;;;;;;;;5083901;28;20611;-67
2023/01/06 01:14:35;;;;;;;10.30;4.28;;;;;;;;;;5075818;28;20043;-67
2023/01/06 01:17:01;;;;;;;21.55;4.95;;;;;;;;;;5099305;28;20029;-67
2023/01/06 01:19:27;;;;;;;15.40;4.35;;;;;;;;;;5071192;28;20055;-67
2023/01/06 01:21:53;;;;;;;12.23;4.05;;;;;;;;;;5083800;28;20047;-67
2023/01/06 01:24:20;;;;;;;8.70;3.75;;;;;;;;;;5078848;28;20040;-67
2023/01/06 01:26:46;;;;;;;14.95;4.40;;;;;;;;;;5077980;28;20402;-67
2023/01/06 01:29:14;;;;;;;15.52;4.50;;;;;;;;;;5076274;28;20139;-67
2023/01/06 01:31:40;;;;;;;12.30;3.85;;;;;;;;;;5088595;28;20071;-67
2023/01/06 01:34:06;;;;;;;15.27;4.05;;;;;;;;;;5069558;28;20203;-67
2023/01/06 01:36:33;;;;;;;13.00;4.47;;;;;;;;;;5061603;28;20309;-67
2023/01/06 01:38:59;;;;;;;18.10;4.45;;;;;;;;;;5074368;28;20063;-67
2023/01/06 01:41:26;;;;;;;11.50;3.70;;;;;;;;;;5088321;28;20071;-67
2023/01/06 01:43:54;;;;;;;16.83;4.45;;;;;;;;;;5093652;28;20040;-67
2023/01/06 01:46:33;;;;;;;8.32;3.33;;;;;;;;;;5082215;28;20467;-67
2023/01/06 01:49:01;;;;;;;9.82;4.15;;;;;;;;;;5086584;28;20078;-67
2023/01/06 01:51:32;;;;;;;14.13;4.30;;;;;;;;;;5075955;28;20495;-67
2023/01/06 01:54:01;;;;;;;12.48;3.90;;;;;;;;;;5080276;28;20066;-67
2023/01/06 01:56:29;;;;;;;8.90;3.53;;;;;;;;;;5070917;28;20112;-67
2023/01/06 01:59:07;;;;;;;14.15;3.97;;;;;;;;;;5069254;28;20111;-67
2023/01/06 02:01:34;;;;;;;14.02;4.05;;;;;;;;;;5066236;28;20055;-67
2023/01/06 02:04:00;;;;;;;9.27;4.25;;;;;;;;;;5055415;28;20032;-67
2023/01/06 02:06:27;;;;;;;11.85;4.22;;;;;;;;;;5090342;28;20068;-67
2023/01/06 02:09:00;;;;;;;7.90;3.58;;;;;;;;;;5067910;28;20132;-67
2023/01/06 02:11:27;;;;;;;10.77;4.75;;;;;;;;;;5074599;28;20443;-67
2023/01/06 02:13:57;;;;;;;16.95;4.18;;;;;;;;;;5063613;28;20490;-67
2023/01/06 02:16:30;;;;;;;9.25;4.15;;;;;;;;;;5072708;28;20105;-67
2023/01/06 02:19:02;;;;;;;12.38;4.50;;;;;;;;;;5075084;28;20035;-67
2023/01/06 02:21:43;;;;;;;8.65;4.25;;;;;;;;;;5071617;28;20040;-67
2023/01/06 02:24:38;;;;;;;14.52;6.18;;;;;;;;;;5087165;28;20043;-67
2023/01/06 02:27:10;;;;;;;11.07;4.13;;;;;;;;;;4998249;28;20050;-67
2023/01/06 02:29:55;;;;;;;13.60;3.60;;;;;;;;;;5087956;28;20044;-67
2023/01/06 02:32:27;;;;;;;9.95;3.80;;;;;;;;;;5089664;28;20040;-67
2023/01/06 02:35:11;;;;;;;12.63;4.90;;;;;;;;;;5053664;28;20084;-67
2023/01/06 02:37:46;;;;;;;12.48;3.80;;;;;;;;;;5087895;28;20044;-67
2023/01/06 02:40:45;;;;;;;9.05;3.63;;;;;;;;;;5082380;28;20036;-67
2023/01/06 02:43:14;;;;;;;8.35;3.05;;;;;;;;;;5070097;28;20048;-67
2023/01/06 02:45:49;;;;;;;6.95;3.05;;;;;;;;;;5090853;28;20032;-67
2023/01/06 02:48:23;;;;;;;6.78;3.00;;;;;;;;;;5092073;28;20039;-67
2023/01/06 02:50:49;;;;;;;13.95;4.15;;;;;;;;;;5075034;28;20075;-67
2023/01/06 02:53:22;;;;;;;13.77;3.80;;;;;;;;;;5091723;28;20032;-67
2023/01/06 02:55:49;;;;;;;7.45;3.13;;;;;;;;;;5090175;28;20209;-67
2023/01/06 02:58:26;;;;;;;9.00;3.08;;;;;;;;;;5071841;28;20040;-67
2023/01/06 03:00:56;;;;;;;7.40;2.97;;;;;;;;;;5073596;28;20539;-67
2023/01/06 03:03:24;;;;;;;5.72;2.60;;;;;;;;;;5096755;28;20042;-67
2023/01/06 03:05:55;;;;;;;12.18;2.92;;;;;;;;;;5105251;27;20481;-67
2023/01/06 03:08:25;;;;;;;5.45;2.72;;;;;;;;;;5084855;28;20111;-67
2023/01/06 03:10:51;;;;;;;10.00;3.53;;;;;;;;;;5070587;28;20501;-67
2023/01/06 03:13:21;;;;;;;6.40;3.72;;;;;;;;;;5089004;28;20438;-67
2023/01/06 03:15:47;;;;;;;11.20;4.43;;;;;;;;;;5093246;28;20104;-67
2023/01/06 03:18:13;;;;;;;7.60;4.20;;;;;;;;;;5097665;27;20036;-67
2023/01/06 03:20:39;;;;;;;6.78;4.53;;;;;;;;;;5094182;28;20178;-67
2023/01/06 03:23:06;;;;;;;7.03;4.43;;;;;;;;;;5071740;28;20048;-67
2023/01/06 03:25:32;;;;;;;12.40;5.82;;;;;;;;;;5059025;28;20087;-67
2023/01/06 03:27:58;;;;;;;9.25;5.05;;;;;;;;;;5075253;28;20047;-67
2023/01/06 03:30:26;;;;;;;8.98;5.13;;;;;;;;;;5096569;28;20039;-67
2023/01/06 03:33:01;;;;;;;11.95;6.05;;;;;;;;;;5086899;28;20079;-67
2023/01/06 03:35:38;;;;;;;10.40;6.28;;;;;;;;;;5074275;28;20028;-67
2023/01/06 03:38:16;;;;;;;11.55;7.07;;;;;;;;;;5090469;28;20112;-67
2023/01/06 03:40:43;;;;;;;11.93;7.60;;;;;;;;;;5072304;28;20032;-67
2023/01/06 03:43:12;;;;;;;13.43;8.25;;;;;;;;;;5089263;28;20040;-67
2023/01/06 03:45:51;;;;;;;13.40;7.88;;;;;;;;;;5091821;28;20132;-67
2023/01/06 03:48:23;;;;;;;12.63;8.82;;;;;;;;;;5074652;28;20090;-67
2023/01/06 03:50:52;;;;;;;13.20;8.38;;;;;;;;;;5071721;28;20111;-67
2023/01/06 03:53:30;;;;;;;13.35;10.25;;;;;;;;;;5074427;28;20093;-67
2023/01/06 03:56:05;;;;;;;9.27;8.00;;;;;;;;;;5088767;28;20028;-67
2023/01/06 03:58:32;;;;;;;10.20;7.68;;;;;;;;;;5087497;28;20064;-67
2023/01/06 04:00:59;;;;;;;13.50;8.43;;;;;;;;;;5075517;28;20074;-67
2023/01/06 04:03:25;;;;;;;12.77;7.40;;;;;;;;;;5092057;28;20032;-67
2023/01/06 04:05:53;;;;;;;11.90;7.65;;;;;;;;;;5088247;28;20054;-67
2023/01/06 04:08:19;;;;;;;9.27;6.35;;;;;;;;;;5091491;28;20024;-67
2023/01/06 04:10:45;;;;;;;12.00;6.47;;;;;;;;;;5099456;27;20043;-67
2023/01/06 04:13:11;;;;;;;13.00;6.88;;;;;;;;;;5071352;28;20113;-67
2023/01/06 04:15:38;;;;;;;11.80;6.60;;;;;;;;;;5070942;28;20048;-67
2023/01/06 04:18:04;;;;;;;9.75;5.72;;;;;;;;;;5074800;28;20431;-67
2023/01/06 04:20:30;;;;;;;12.30;5.10;;;;;;;;;;5086934;28;20036;-67
2023/01/06 04:22:57;;;;;;;11.02;5.10;;;;;;;;;;5087730;28;20040;-67
2023/01/06 04:25:24;;;;;;;6.97;4.65;;;;;;;;;;5070470;28;20047;-67
2023/01/06 04:27:50;;;;;;;8.77;5.25;;;;;;;;;;5070418;28;20044;-67
2023/01/06 04:30:16;;;;;;;6.43;4.80;;;;;;;;;;5100946;28;20085;-67
2023/01/06 04:32:43;;;;;;;6.60;4.60;;;;;;;;;;5065846;28;20058;-68
2023/01/06 04:35:09;;;;;;;5.93;4.00;;;;;;;;;;5079729;28;20565;-67
2023/01/06 04:37:36;;;;;;;6.20;3.40;;;;;;;;;;5074119;28;20109;-67
2023/01/06 04:40:02;;;;;;;11.23;3.85;;;;;;;;;;5069384;28;20071;-67
2023/01/06 04:43:02;;;;;;;7.68;3.30;;;;;;;;;;5081393;28;20044;-67
2023/01/06 04:45:14;;;;;;;9.55;3.50;;;;;;;;;;5069715;28;20047;-67
2023/01/06 04:47:41;;;;;;;10.63;3.60;;;;;;;;;;5089130;28;20031;-67
2023/01/06 04:50:07;;;;;;;6.15;3.85;;;;;;;;;;5071570;28;20075;-67
2023/01/06 04:52:33;;;;;;;6.30;3.60;;;;;;;;;;5080985;28;20469;-67
2023/01/06 04:54:59;;;;;;;5.35;2.92;;;;;;;;;;5090071;28;20123;-67
2023/01/06 04:57:25;;;;;;;4.60;3.50;;;;;;;;;;5088907;28;20070;-67
2023/01/06 04:59:51;;;;;;;5.57;2.58;;;;;;;;;;5072538;28;20040;-67
2023/01/06 05:02:17;;;;;;;6.65;3.35;;;;;;;;;;5095464;28;20039;-67
2023/01/06 05:04:43;;;;;;;6.03;2.85;;;;;;;;;;5077420;28;20051;-67
2023/01/06 05:07:10;;;;;;;5.30;2.75;;;;;;;;;;5077084;28;20631;-67
2023/01/06 05:09:36;;;;;;;4.88;2.38;;;;;;;;;;5074189;28;20052;-67
2023/01/06 05:12:02;;;;;;;7.93;2.90;;;;;;;;;;5091833;28;20050;-67
2023/01/06 05:14:28;;;;;;;5.32;3.05;;;;;;;;;;5090695;28;20036;-67
2023/01/06 05:16:54;;;;;;;8.05;2.65;;;;;;;;;;5096849;28;20076;-67
2023/01/06 05:19:20;;;;;;;4.47;2.42;;;;;;;;;;5083479;28;20404;-67
2023/01/06 05:21:46;;;;;;;5.80;3.33;;;;;;;;;;5076841;28;20162;-67
2023/01/06 05:24:12;;;;;;;10.48;4.28;;;;;;;;;;5106231;28;20050;-67
2023/01/06 05:26:39;;;;;;;5.55;3.25;;;;;;;;;;5108648;27;20040;-67
2023/01/06 05:29:05;;;;;;;7.22;4.15;;;;;;;;;;5079400;28;20036;-67
2023/01/06 05:31:31;;;;;;;10.27;3.28;;;;;;;;;;5073121;28;20047;-67
2023/01/06 05:33:57;;;;;;;7.10;3.63;;;;;;;;;;5068782;28;20221;-67
2023/01/06 05:36:23;;;;;;;5.00;3.58;;;;;;;;;;5074551;28;20044;-67
2023/01/06 05:38:53;;;;;;;8.50;3.70;;;;;;;;;;5060303;28;20051;-68
2023/01/06 05:41:19;;;;;;;6.75;3.33;;;;;;;;;;5091963;28;20512;-67
2023/01/06 05:43:45;;;;;;;5.18;3.97;;;;;;;;;;5077045;28;20084;-68
2023/01/06 05:46:12;;;;;;;6.95;4.03;;;;;;;;;;5078958;28;20048;-68
2023/01/06 05:48:38;;;;;;;5.72;3.97;;;;;;;;;;5091241;28;20486;-68
2023/01/06 05:51:06;;;;;;;6.20;4.07;;;;;;;;;;5095333;28;20134;-68
2023/01/06 05:53:32;;;;;;;8.23;4.10;;;;;;;;;;5078889;28;20109;-67
2023/01/06 05:55:59;;;;;;;6.75;4.28;;;;;;;;;;5072259;28;20039;-68
2023/01/06 05:58:25;;;;;;;9.35;4.65;;;;;;;;;;5074500;28;20513;-67
2023/01/06 06:00:51;;;;;;;7.40;4.55;;;;;;;;;;5075386;28;20044;-67
2023/01/06 06:03:17;;;;;;;7.93;4.40;;;;;;;;;;5079145;28;20036;-68
2023/01/06 06:05:44;;;;;;;8.05;4.95;;;;;;;;;;5075521;28;20051;-67
2023/01/06 06:08:10;;;;;;;8.20;5.53;;;;;;;;;;5075746;28;20048;-67
2023/01/06 06:10:36;;;;;;;6.07;4.47;;;;;;;;;;5074464;28;20046;-67
2023/01/06 06:13:02;;;;;;;6.97;4.78;;;;;;;;;;5070672;28;20054;-67
2023/01/06 06:15:28;;;;;;;9.52;5.35;;;;;;;;;;5074302;28;20086;-68
2023/01/06 06:17:54;;;;;;;9.25;4.72;;;;;;;;;;5087011;28;20040;-67
2023/01/06 06:20:20;;;;;;;6.32;4.60;;;;;;;;;;5092940;28;20406;-68
2023/01/06 06:22:46;;;;;;;7.30;5.07;;;;;;;;;;5091878;28;20443;-67
2023/01/06 06:25:13;;;;;;;6.22;4.45;;;;;;;;;;5090107;28;20074;-67
2023/01/06 06:27:39;;;;;;;7.70;5.28;;;;;;;;;;5057544;28;20044;-67
2023/01/06 06:30:06;;;;;;;9.05;5.38;;;;;;;;;;5091885;28;20078;-68
2023/01/06 06:32:32;;;;;;;8.68;5.97;;;;;;;;;;5072660;28;20044;-68
2023/01/06 06:34:58;;;;;;;7.57;5.65;;;;;;;;;;5076780;28;20050;-68
2023/01/06 06:37:24;;;;;;;9.65;6.10;;;;;;;;;;5073703;28;20240;-68
2023/01/06 06:39:50;;;;;;;7.47;5.43;;;;;;;;;;5105122;27;20197;-67
2023/01/06 06:42:16;;;;;;;7.75;5.28;;;;;;;;;;5089156;28;20064;-67
2023/01/06 06:44:42;;;;;;;8.13;5.30;;;;;;;;;;5071087;28;20051;-67
2023/01/06 06:47:09;;;;;;;9.00;5.45;;;;;;;;;;5068523;28;20036;-67
2023/01/06 06:49:35;;;;;;;8.73;4.88;;;;;;;;;;5104764;27;20056;-67
2023/01/06 06:52:01;;;;;;;7.40;5.00;;;;;;;;;;5074049;28;20126;-68
2023/01/06 06:54:27;;;;;;;7.03;5.28;;;;;;;;;;5070858;28;20044;-67
2023/01/06 06:56:53;;;;;;;4.88;3.80;;;;;;;;;;5069430;28;20055;-68
2023/01/06 06:59:20;;;;;;;8.82;4.05;;;;;;;;;;5104695;27;20092;-67
2023/01/06 07:01:46;;;;;;;9.18;3.90;;;;;;;;;;5087972;28;20097;-67
2023/01/06 07:04:12;;;;;;;8.98;3.50;;;;;;;;;;5101917;28;20081;-68
2023/01/06 07:06:38;;;;;;;5.82;3.22;;;;;;;;;;5072308;28;20126;-67
2023/01/06 07:09:05;;;;;;;4.22;2.90;;;;;;;;;;5077415;28;20067;-67
2023/01/06 07:11:31;;;;;;;12.15;3.28;;;;;;;;;;5064106;28;20406;-67
2023/01/06 07:13:57;;;;;;;14.25;3.83;;;;;;;;;;5063160;28;20040;-67
2023/01/06 07:16:25;;;;;;;10.05;3.33;;;;;;;;;;5080577;28;20403;-67
2023/01/06 07:18:51;;;;;;;12.88;3.25;;;;;;;;;;5090716;28;20044;-67
2023/01/06 07:21:17;;;;;;;11.95;3.25;;;;;;;;;;5045201;28;20131;-67
2023/01/06 07:23:44;;;;;;;8.13;2.03;;;;;;;;;;5080463;28;20043;-67
2023/01/06 07:26:10;;;;;;;12.85;2.90;;;;;;;;;;5059776;28;20048;-67
2023/01/06 07:28:37;;;;;;;8.15;1.90;;;;;;;;;;5074994;28;20389;-67
2023/01/06 07:31:03;;;;;;;7.50;1.95;;;;;;;;;;5058874;28;20497;-67
2023/01/06 07:33:29;;;;;;;2.90;1.25;;;;;;;;;;5061918;28;20135;-67
2023/01/06 07:35:56;;;;;;;4.03;1.63;;;;;;;;;;5079980;28;20504;-67
2023/01/06 07:38:23;;;;;;;4.70;1.63;;;;;;;;;;5074685;28;20109;-67
2023/01/06 07:40:49;;;;;;;4.68;1.45;;;;;;;;;;5080403;28;20036;-67
2023/01/06 07:43:18;;;;;;;4.40;1.65;;;;;;;;;;5085883;28;20054;-67
2023/01/06 07:45:47;;;;;;;6.55;2.20;;;;;;;;;;5078621;28;20087;-67
2023/01/06 07:48:14;;;;;;;5.50;1.58;;;;;;;;;;5080469;28;20068;-67
2023/01/06 07:50:40;;;;;;;3.53;1.48;;;;;;;;;;5086496;28;20047;-67
2023/01/06 07:53:06;;;;;;;5.10;1.42;;;;;;;;;;5068236;28;20040;-67
2023/01/06 07:55:32;;;;;;;8.07;1.70;;;;;;;;;;5049111;28;20040;-68
2023/01/06 07:57:58;;;;;;;5.28;1.65;;;;;;;;;;5067833;28;20044;-67
2023/01/06 08:00:25;;;;;;;4.60;1.45;;;;;;;;;;5087299;28;20079;-67
2023/01/06 08:02:51;;;;;;;6.53;2.03;;;;;;;;;;5069904;28;20079;-68
2023/01/06 08:05:17;;;;;;;6.38;1.83;;;;;;;;;;5067570;28;20127;-67
2023/01/06 08:07:44;;;;;;;6.28;1.90;;;;;;;;;;5052557;28;20094;-67
2023/01/06 08:10:10;;;;;;;3.83;2.17;;;;;;;;;;5099038;27;20368;-67
2023/01/06 08:12:36;;;;;;;6.07;1.83;;;;;;;;;;5089470;28;20108;-67
2023/01/06 08:15:02;;;;;;;9.18;1.98;;;;;;;;;;5068879;28;20119;-67
2023/01/06 08:17:29;;;;;;;7.45;2.28;;;;;;;;;;5084075;28;20050;-67
2023/01/06 08:19:55;;;;;;;7.95;2.00;;;;;;;;;;5087736;28;20506;-67
2023/01/06 08:22:22;;;;;;;11.68;2.67;;;;;;;;;;5095918;27;20036;-67
2023/01/06 08:24:48;;;;;;;7.18;1.95;;;;;;;;;;5063696;28;20044;-67
2023/01/06 08:27:14;;;;;;;7.22;1.90;;;;;;;;;;5062091;28;20048;-67
2023/01/06 08:29:40;;;;;;;9.88;3.20;;;;;;;;;;5078912;28;20071;-67
2023/01/06 08:32:06;;;;;;;7.90;2.97;;;;;;;;;;5066178;28;20710;-67
2023/01/06 08:34:32;;;;;;;12.20;3.55;;;;;;;;;;5070699;28;20079;-67
2023/01/06 08:36:58;;;;;;;7.90;2.65;;;;;;;;;;5073074;28;20505;-67
2023/01/06 08:39:24;;;;;;;6.22;2.58;;;;;;;;;;5078949;28;20032;-67
2023/01/06 08:41:52;;;;;;;13.68;3.35;;;;;;;;;;5058421;28;20157;-67
2023/01/06 08:44:18;;;;;;;9.68;3.05;;;;;;;;;;5061723;28;20325;-66
2023/01/06 08:46:45;;;;;;;11.73;3.50;;;;;;;;;;5071450;28;20040;-67
2023/01/06 08:49:11;;;;;;;20.42;3.53;;;;;;;;;;5090288;28;20040;-67
2023/01/06 08:51:37;;;;;;;10.65;3.15;;;;;;;;;;5066758;28;20037;-67
2023/01/06 08:54:03;;;;;;;7.63;2.50;;;;;;;;;;5080082;28;20032;-67
2023/01/06 08:56:31;;;;;;;9.48;3.45;;;;;;;;;;5080861;28;20324;-67
2023/01/06 08:58:59;;;;;;;11.95;2.90;;;;;;;;;;5073850;28;20043;-67
2023/01/06 09:01:26;;;;;;;17.73;3.25;;;;;;;;;;5058356;28;20130;-66
2023/01/06 09:03:53;;;;;;;11.07;3.35;;;;;;;;;;5074904;28;20043;-67
2023/01/06 09:06:19;;;;;;;15.05;3.45;;;;;;;;;;5068303;28;20245;-67
2023/01/06 09:08:47;;;;;;;8.23;3.70;;;;;;;;;;5069108;28;20044;-66
2023/01/06 09:11:13;;;;;;;11.93;3.45;;;;;;;;;;5055401;28;20098;-67
2023/01/06 09:13:40;;;;;;;17.52;4.72;;;;;;;;;;5077108;28;20041;-67
2023/01/06 09:16:09;;;;;;;10.93;2.70;;;;;;;;;;5057840;28;20086;-67
2023/01/06 09:18:36;;;;;;;11.95;3.08;;;;;;;;;;5070148;28;20051;-67
2023/01/06 09:21:02;;;;;;;11.05;3.10;;;;;;;;;;5055441;28;20044;-67
2023/01/06 09:23:29;;;;;;;8.35;3.00;;;;;;;;;;5076579;28;20052;-67
2023/01/06 09:25:55;;;;;;;13.43;5.13;;;;;;;;;;5070829;28;20068;-67
2023/01/06 09:28:22;;;;;;;10.05;2.58;;;;;;;;;;5077973;28;20067;-67
2023/01/06 09:30:48;;;;;;;12.85;2.67;;;;;;;;;;5090452;28;20047;-67
2023/01/06 09:33:15;;;;;;;10.70;2.33;;;;;;;;;;5070666;28;20051;-67
2023/01/06 09:35:43;;;;;;;6.75;2.42;;;;;;;;;;5060303;28;20105;-67
2023/01/06 09:38:09;;;;;;;10.32;2.70;;;;;;;;;;5080782;28;20048;-67
2023/01/06 09:40:44;;;;;;;10.68;2.85;;;;;;;;;;5086304;28;20052;-67
2023/01/06 09:43:21;;;;;;;11.05;3.00;;;;;;;;;;5083451;28;20458;-67
2023/01/06 09:45:53;;;;;;;11.88;3.00;;;;;;;;;;5069452;28;20051;-67
2023/01/06 09:48:23;;;;;;;9.05;2.53;;;;;;;;;;5071981;28;20036;-67
2023/01/06 09:50:54;;;;;;;8.35;2.67;;;;;;;;;;5077897;28;20276;-67
2023/01/06 09:53:49;;;;;;;16.08;2.63;;;;;;;;;;5069460;28;20037;-67
2023/01/06 09:56:16;;;;;;;7.10;1.98;;;;;;;;;;5074659;28;20130;-67
2023/01/06 09:59:06;;;;;;;24.63;4.30;;;;;;;;;;5076521;28;20436;-67
2023/01/06 10:01:35;;;;;;;7.13;2.83;;;;;;;;;;5059494;28;20054;-67
2023/01/06 10:04:02;;;;;;;7.85;2.60;;;;;;;;;;5078671;28;20135;-67
2023/01/06 10:06:43;;;;;;;10.18;3.55;;;;;;;;;;5088732;28;20032;-67
2023/01/06 10:09:15;;;;;;;14.30;4.03;;;;;;;;;;5081363;28;20454;-67
2023/01/06 10:11:44;;;;;;;12.93;2.65;;;;;;;;;;5069638;28;20048;-67
2023/01/06 10:14:18;;;;;;;6.57;2.33;;;;;;;;;;5072932;28;20040;-67
2023/01/06 10:16:52;;;;;;;10.90;2.58;;;;;;;;;;5077553;28;20514;-67
2023/01/06 10:19:27;;;;;;;9.18;3.08;;;;;;;;;;5075791;28;20048;-67
2023/01/06 10:22:05;;;;;;;7.68;2.03;;;;;;;;;;5091292;28;20047;-67
2023/01/06 10:24:34;;;;;;;6.20;2.05;;;;;;;;;;5090971;28;20040;-67
2023/01/06 10:27:39;;;;;;;9.48;3.47;;;;;;;;;;5072533;28;20544;-67
2023/01/06 10:30:19;;;;;;;5.50;2.00;;;;;;;;;;5049493;28;20040;-67
2023/01/06 10:32:47;;;;;;;7.53;2.45;;;;;;;;;;5065881;28;20053;-67
2023/01/06 10:35:15;;;;;;;8.38;2.20;;;;;;;;;;5083039;28;20044;-67
2023/01/06 10:37:43;;;;;;;5.90;1.92;;;;;;;;;;5079270;28;20044;-67
2023/01/06 10:40:13;;;;;;;17.08;3.03;;;;;;;;;;5088479;28;20510;-67
2023/01/06 10:42:54;;;;;;;6.97;2.80;;;;;;;;;;5086748;28;20036;-67
2023/01/06 10:45:39;;;;;;;13.18;2.97;;;;;;;;;;5085418;28;20039;-67
2023/01/06 10:48:06;;;;;;;14.10;3.42;;;;;;;;;;5098846;27;20399;-67
2023/01/06 10:50:33;;;;;;;8.88;2.80;;;;;;;;;;5081363;28;20038;-67
2023/01/06 10:52:59;;;;;;;8.93;3.38;;;;;;;;;;5061268;28;20047;-67
2023/01/06 10:55:34;;;;;;;9.68;2.50;;;;;;;;;;5080522;28;20063;-67
2023/01/06 10:58:11;;;;;;;13.50;2.80;;;;;;;;;;5062985;28;20070;-67
2023/01/06 11:00:37;;;;;;;8.38;2.78;;;;;;;;;;5079769;28;20790;-68
2023/01/06 11:03:05;;;;;;;8.30;3.00;;;;;;;;;;5081319;28;20039;-67
2023/01/06 11:05:32;;;;;;;6.97;2.38;;;;;;;;;;5082293;28;20032;-69
2023/01/06 11:08:06;;;;;;;7.68;2.92;;;10.10;99.90;;;;;;5069781;28;20044;-67
2023/01/06 11:10:40;;;;;;;10.55;2.55;;;10.00;99.90;;;;;;5058166;28;20044;-67
2023/01/06 11:13:30;;;;;;;8.00;2.53;;;10.10;99.90;;;;;;5075484;28;20035;-67
2023/01/06 11:15:58;;;;;;;13.10;2.80;;;10.20;99.90;;;;;;5091308;28;20201;-66
2023/01/06 11:18:30;;;;;;;9.48;3.38;;;10.30;99.90;;;;;;5068290;28;20032;-67
2023/01/06 11:21:11;;;;;;;7.97;2.35;;;10.40;99.90;;;;;;5075976;28;20489;-67
2023/01/06 11:23:40;;;;;;;10.52;2.92;;;10.50;99.90;;;;;;5082432;28;20046;-67
2023/01/06 11:26:06;;;;;;;9.93;3.60;;;;;;;;;;5097672;27;20489;-67
2023/01/06 11:28:32;;;;;;;7.90;2.70;;;;;;;;;;5067635;28;20568;-67
2023/01/06 11:31:06;;;;;;;14.10;3.33;;;;;;;;;;5078589;28;20490;-67
2023/01/06 11:33:34;;;;;;;12.82;3.05;;;;;;;;;;5079022;28;20419;-67
2023/01/06 11:36:06;;;;;;;10.52;3.40;;;;;;;;;;5076998;28;20123;-67
2023/01/06 11:38:39;;;;;;;9.55;3.80;;;;;;;;;;5077027;28;20032;-67
2023/01/06 11:41:07;;;;;;;11.00;2.92;;;;;;;;;;5083164;28;20068;-66
2023/01/06 11:43:34;;;;;;;9.98;4.03;;;;;;;;;;5073777;28;20040;-68
2023/01/06 11:46:01;;;;;;;6.65;2.65;;;;;;;;;;5081946;28;20074;-67
2023/01/06 11:48:27;;;;;;;7.68;2.78;;;;;;;;;;5050530;28;20474;-67
2023/01/06 11:50:55;;;;;;;11.93;3.65;;;;;;;;;;5078482;28;20039;-67
2023/01/06 11:53:23;;;;;;;11.27;4.40;;;;;;;;;;5082128;28;20438;-67
2023/01/06 11:55:55;;;;;;;11.25;2.83;;;;;;;;;;5090856;28;20040;-68
2023/01/06 11:58:26;;;;;;;7.93;2.83;;;;;;;;;;5091647;28;20035;-67
2023/01/06 12:01:10;;;;;;;7.35;2.42;;;10.60;99.90;;;;;;5078145;28;20055;-68
2023/01/06 12:03:51;;;;;;;12.88;3.55;;;13.80;99.90;;;;;;5051098;28;20749;-67
2023/01/06 12:06:40;;;;;;;8.82;3.13;;;13.70;99.90;;;;;;5102264;27;20044;-67
2023/01/06 12:09:21;;;;;;;8.98;3.28;;;13.50;99.90;;;;;;5081646;28;20419;-67
2023/01/06 12:11:51;;;;;;;9.85;3.00;;;13.50;99.90;;;;;;5070472;28;20047;-67
2023/01/06 12:14:20;;;;;;;7.13;2.38;;;13.40;99.90;;;;;;5107763;27;20044;-67
2023/01/06 12:17:17;;;;;;;9.32;2.65;;;13.40;99.90;;;;;;5086662;28;20119;-67
2023/01/06 12:19:55;;;;;;;8.13;2.38;;;13.40;99.90;;;;;;5088515;28;20379;-67
2023/01/06 12:23:13;;;;;;;12.45;3.03;;;13.40;99.90;;;;;;5092288;27;20043;-68
2023/01/06 12:25:38;;;;;;;8.35;3.00;;;13.20;99.90;;;;;;5058984;28;20048;-67
2023/01/06 12:28:17;;;;;;;13.88;3.28;;;13.10;99.90;;;;;;5075821;28;20043;-67
2023/01/06 12:31:07;;;;;;;9.60;3.08;;;12.90;99.90;;;;;;5068464;28;20112;-67
2023/01/06 12:33:48;;;;;;;7.10;2.70;;;12.60;99.90;;;;;;5085305;28;20054;-68
2023/01/06 12:36:45;;;;;;;10.63;3.20;;;12.40;99.90;;;;;;5083376;28;20046;-67
2023/01/06 12:39:29;;;;;;;11.32;3.70;;;12.30;99.90;;;;;;5102228;28;20525;-67
2023/01/06 12:42:02;;;;;;;11.32;3.10;;;12.30;99.90;;;;;;5099392;28;20072;-67
2023/01/06 12:44:40;;;;;;;9.68;2.97;;;12.20;99.90;;;;;;5086649;28;20065;-68
2023/01/06 12:47:37;;;;;;;11.05;2.65;;;12.20;99.90;;;;;;5070443;28;20044;-67
2023/01/06 12:50:06;;;;;;;9.18;3.63;;;12.00;99.90;;;;;;5076732;28;20064;-68
2023/01/06 12:52:37;;;;;;;11.80;3.25;;;11.90;99.90;;;;;;5078476;28;20193;-67
2023/01/06 12:55:03;;;;;;;13.02;4.13;;;11.70;99.90;;;;;;5061975;28;20049;-67
2023/01/06 12:57:44;;;;;;;15.45;4.20;;;;;;;;;;5092088;28;20115;-67
2023/01/06 13:00:10;;;;;;;9.38;3.28;;;;;;;;;;5086300;28;20039;-67
2023/01/06 13:02:51;;;;;;;9.20;3.60;;;11.50;99.90;;;;;;5067173;28;20040;-67
2023/01/06 13:05:36;;;;;;;7.60;3.03;;;;;;;;;;5085252;28;20076;-67
2023/01/06 13:08:12;;;;;;;16.45;3.80;;;;;;;;;;5071817;28;20051;-68
2023/01/06 13:10:47;;;;;;;11.30;2.72;;;;;;;;;;5091336;28;20036;-67
2023/01/06 13:13:20;;;;;;;7.28;3.45;;;;;;;;;;5068401;28;20054;-68
2023/01/06 13:15:46;;;;;;;10.77;3.17;;;;;;;;;;5086466;28;20130;-68
2023/01/06 13:18:38;;;;;;;11.40;3.78;;;11.00;99.90;;;;;;5089619;28;20036;-68
2023/01/06 13:21:07;;;;;;;12.70;3.35;;;;;;;;;;5082550;28;20050;-67
2023/01/06 13:23:54;;;;;;;9.32;3.17;;;10.20;99.90;;;;;;5088612;28;20051;-68
2023/01/06 13:26:23;;;;;;;8.40;3.40;;;10.10;99.90;;;;;;5074212;28;20032;-68
2023/01/06 13:28:55;;;;;;;9.80;3.08;;;10.00;99.90;;;;;;5077250;28;20048;-68
2023/01/06 13:31:39;;;;;;;15.18;3.17;;;9.90;99.90;;;;;;5095085;27;20051;-68
2023/01/06 13:34:27;;;;;;;8.02;2.92;;;9.90;99.90;;;;;;5087258;28;20047;-68
2023/01/06 13:36:55;;;;;;;8.60;3.08;;;9.90;99.90;;;;;;5073295;28;20112;-67
2023/01/06 13:39:32;;;;;;;9.35;2.97;;;9.80;99.90;;;;;;5096024;27;20036;-67
2023/01/06 13:42:02;;;;;;;9.15;3.45;;;9.70;99.90;;;;;;5073391;28;20136;-68
2023/01/06 13:44:31;;;;;;;11.77;3.33;;;9.70;99.90;;;;;;5075364;28;20077;-68
2023/01/06 13:47:24;;;;;;;9.32;2.75;;;;;;;;;;5087855;28;20119;-68
2023/01/06 13:49:50;;;;;;;10.25;3.47;;;;;;;;;;5071126;28;20127;-68
2023/01/06 13:52:25;;;;;;;11.25;3.97;;;9.60;99.90;;;;;;5088749;28;20032;-68
2023/01/06 13:54:59;;;;;;;7.60;2.40;;;9.60;99.90;;;;;;5080155;28;20402;-68
2023/01/06 13:57:29;;;;;;;7.60;3.25;;;9.50;99.90;;;;;;5067476;28;20040;-68
2023/01/06 14:00:04;;;;;;;7.35;2.67;;;9.50;99.90;;;;;;5087082;28;20043;-68
2023/01/06 14:02:33;;;;;;;8.95;2.47;;;9.50;99.90;;;;;;5086867;28;20481;-68
2023/01/06 14:05:26;;;;;;;7.78;3.08;;;9.50;99.90;;;;;;5098022;28;20043;-71
2023/01/06 14:08:11;;;;;;;13.05;2.20;;;9.50;99.90;;;;;;5048185;28;20044;-71
2023/01/06 14:10:42;;;;;;;11.02;3.00;;;9.40;99.90;;;;;;5075774;28;20088;-70
2023/01/06 14:13:25;;;;;;;12.68;3.22;;;;;;;;;;5074999;28;20032;-71
2023/01/06 14:15:54;;;;;;;;;;;;;;;;;;5077522;28;20069;-70
2023/01/06 14:18:35;;;;;;;8.32;3.22;;;9.40;99.90;;;;;;5106145;27;19939;-71
2023/01/06 14:21:09;;;;;;;8.75;3.40;;;9.40;99.90;;;;;;5092931;28;20063;-70
2023/01/06 14:23:35;;;;;;;10.32;4.32;;;9.30;99.90;;;;;;5083281;28;20528;-70
2023/01/06 14:26:02;;;;;;;15.10;2.70;;;9.30;99.90;;;;;;5069162;28;20032;-69
2023/01/06 14:28:31;;;;;;;14.30;3.78;;;9.30;99.90;;;;;;5085263;28;20497;-71
2023/01/06 14:31:16;;;;;;;10.57;2.88;;;;;;;;;;5104378;27;20039;-70
2023/01/06 14:33:44;;;;;;;8.55;2.63;;;;;;;;;;5072693;28;20060;-71
2023/01/06 14:36:14;;;;;;;11.00;3.15;;;;;;;;;;5090997;28;20039;-70